createdAt,value
2022-08-03T00:01:48.126Z,100588.47
2022-08-03T00:04:14.463Z,100588.69
2022-08-03T00:06:40.820Z,100596.47
2022-08-03T00:09:07.498Z,100596.03
2022-08-03T00:11:34.054Z,100595.91
2022-08-03T00:14:01.272Z,100598.56
2022-08-03T00:16:27.609Z,100592.72
2022-08-03T00:18:54.006Z,100593.06
2022-08-03T00:21:20.366Z,100588.38
2022-08-03T00:23:51.369Z,100590.69
2022-08-03T00:26:19.605Z,100591.69
2022-08-03T00:28:46.006Z,100587.47
2022-08-03T00:31:13.427Z,100582.31
2022-08-03T00:33:59.174Z,100588.63
2022-08-03T00:36:27.406Z,100588.16
2022-08-03T00:38:53.844Z,100590.44
2022-08-03T00:41:20.248Z,100583.47
2022-08-03T00:43:46.651Z,100586.44
2022-08-03T00:46:16.429Z,100579.81
2022-08-03T00:48:47.095Z,100586.69
2022-08-03T00:51:13.567Z,100583.00
2022-08-03T00:53:39.954Z,100586.34
2022-08-03T00:56:06.334Z,100579.25
2022-08-03T00:58:32.771Z,100584.28
2022-08-03T01:00:59.207Z,100577.75
2022-08-03T01:03:25.739Z,100576.81
2022-08-03T01:05:54.715Z,100579.25
2022-08-03T01:08:46.656Z,100569.72
2022-08-03T01:12:00.543Z,100568.69
2022-08-03T01:14:37.054Z,100572.72
2022-08-03T01:17:30.620Z,100564.69
2022-08-03T01:20:08.106Z,100565.47
2022-08-03T01:22:51.707Z,100571.78
2022-08-03T01:25:42.885Z,100569.03
2022-08-03T01:28:45.167Z,100566.06
2022-08-03T01:31:14.203Z,100568.91
2022-08-03T01:33:51.041Z,100567.19
2022-08-03T01:36:22.718Z,100568.22
2022-08-03T01:38:58.640Z,100563.06
2022-08-03T01:41:30.763Z,100569.59
2022-08-03T01:44:27.416Z,100574.28
2022-08-03T01:46:48.901Z,100572.00
2022-08-03T01:49:16.732Z,100564.91
2022-08-03T01:52:03.617Z,100564.53
2022-08-03T01:54:32.613Z,100572.19
2022-08-03T01:56:59.658Z,100568.06
2022-08-03T01:59:28.953Z,100559.63
2022-08-03T02:02:28.443Z,100562.09
2022-08-03T02:04:46.865Z,100555.00
2022-08-03T02:07:15.166Z,100563.56
2022-08-03T02:09:44.716Z,100560.81
2022-08-03T02:12:13.733Z,100551.81
2022-08-03T02:14:43.137Z,100552.72
2022-08-03T02:17:10.423Z,100559.13
2022-08-03T02:19:38.674Z,100556.31
2022-08-03T02:22:08.282Z,100551.50
2022-08-03T02:24:34.754Z,100547.59
2022-08-03T02:27:04.092Z,100555.72
2022-08-03T02:29:39.629Z,100555.94
2022-08-03T02:32:09.911Z,100555.13
2022-08-03T02:34:37.661Z,100554.81
2022-08-03T02:37:04.657Z,100549.41
2022-08-03T02:39:34.170Z,100550.75
2022-08-03T02:42:01.371Z,100547.66
2022-08-03T02:44:30.510Z,100551.78
2022-08-03T02:47:01.940Z,100541.91
2022-08-03T02:49:49.445Z,100541.91
2022-08-03T02:52:18.206Z,100543.44
2022-08-03T02:54:47.744Z,100540.34
2022-08-03T02:57:16.027Z,100549.34
2022-08-03T02:59:44.250Z,100544.09
2022-08-03T03:02:12.162Z,100546.25
2022-08-03T03:04:38.971Z,100541.44
2022-08-03T03:07:26.719Z,100543.25
2022-08-03T03:09:55.459Z,100551.28
2022-08-03T03:12:22.535Z,100544.53
2022-08-03T03:14:49.006Z,100548.41
2022-08-03T03:17:17.228Z,100541.63
2022-08-03T03:19:45.114Z,100539.81
2022-08-03T03:22:13.110Z,100540.97
2022-08-03T03:24:41.575Z,100542.75
2022-08-03T03:27:08.671Z,100545.38
2022-08-03T03:29:39.156Z,100552.59
2022-08-03T03:32:08.229Z,100546.31
2022-08-03T03:34:36.487Z,100548.91
2022-08-03T03:37:02.882Z,100552.00
2022-08-03T03:39:29.360Z,100553.47
2022-08-03T03:41:55.905Z,100545.56
2022-08-03T03:44:22.277Z,100549.94
2022-08-03T03:46:48.658Z,100549.59
2022-08-03T03:49:15.684Z,100554.16
2022-08-03T03:51:42.101Z,100552.53
2022-08-03T03:54:08.444Z,100550.13
2022-08-03T03:56:34.816Z,100548.66
2022-08-03T03:59:01.214Z,100547.19
2022-08-03T04:01:27.619Z,100549.47
2022-08-03T04:03:54.033Z,100550.94
2022-08-03T04:06:20.562Z,100551.81
2022-08-03T04:08:46.890Z,100549.34
2022-08-03T04:11:34.109Z,100558.00
2022-08-03T04:14:04.960Z,100553.13
2022-08-03T04:16:35.023Z,100553.72
2022-08-03T04:19:05.222Z,100555.34
2022-08-03T04:21:33.960Z,100560.03
2022-08-03T04:24:03.697Z,100556.41
2022-08-03T04:26:33.693Z,100558.16
2022-08-03T04:29:00.904Z,100562.75
2022-08-03T04:31:28.214Z,100565.41
2022-08-03T04:33:55.325Z,100560.81
2022-08-03T04:36:25.900Z,100563.69
2022-08-03T04:39:04.315Z,100562.00
2022-08-03T04:41:32.071Z,100562.69
2022-08-03T04:44:20.381Z,100564.66
2022-08-03T04:46:52.523Z,100574.28
2022-08-03T04:49:21.541Z,100568.44
2022-08-03T04:51:49.032Z,100573.25
2022-08-03T04:54:16.189Z,100568.81
2022-08-03T04:56:45.554Z,100565.19
2022-08-03T04:59:13.107Z,100569.16
2022-08-03T05:01:40.364Z,100568.16
2022-08-03T05:04:06.742Z,100563.28
2022-08-03T05:06:33.091Z,100555.81
2022-08-03T05:08:59.613Z,100563.34
2022-08-03T05:11:26.064Z,100566.38
2022-08-03T05:13:52.454Z,100567.47
2022-08-03T05:16:18.915Z,100562.88
2022-08-03T05:18:45.260Z,100571.78
2022-08-03T05:21:13.462Z,100565.22
2022-08-03T05:23:40.347Z,100564.34
2022-08-03T05:26:06.870Z,100563.69
2022-08-03T05:28:33.249Z,100564.41
2022-08-03T05:30:59.591Z,100566.53
2022-08-03T05:33:25.934Z,100578.13
2022-08-03T05:36:00.709Z,100574.31
2022-08-03T05:38:34.298Z,100571.81
2022-08-03T05:41:22.294Z,100571.00
2022-08-03T05:43:50.209Z,100572.59
2022-08-03T05:46:16.582Z,100571.53
2022-08-03T05:48:43.043Z,100564.72
2022-08-03T05:51:09.435Z,100571.19
2022-08-03T05:53:35.839Z,100578.28
2022-08-03T05:56:13.201Z,100572.59
2022-08-03T05:58:42.200Z,100573.00
2022-08-03T06:01:08.563Z,100575.78
2022-08-03T06:03:34.961Z,100571.09
2022-08-03T06:06:01.349Z,100578.44
2022-08-03T06:08:27.711Z,100581.94
2022-08-03T06:10:54.054Z,100575.06
2022-08-03T06:13:20.380Z,100568.00
2022-08-03T06:15:46.746Z,100576.31
2022-08-03T06:18:13.150Z,100569.28
2022-08-03T06:20:39.498Z,100570.69
2022-08-03T06:23:06.415Z,100564.81
2022-08-03T06:25:33.894Z,100568.66
2022-08-03T06:28:00.272Z,100563.38
2022-08-03T06:30:26.800Z,100576.56
2022-08-03T06:32:53.359Z,100577.84
2022-08-03T06:35:19.906Z,100572.06
2022-08-03T06:37:48.602Z,100578.50
2022-08-03T06:40:21.911Z,100575.94
2022-08-03T06:42:51.116Z,100574.06
2022-08-03T06:45:18.045Z,100572.88
2022-08-03T06:47:44.571Z,100573.34
2022-08-03T06:50:16.780Z,100572.53
2022-08-03T06:52:43.794Z,100580.00
2022-08-03T06:55:10.144Z,100575.94
2022-08-03T06:57:36.467Z,100578.25
2022-08-03T07:00:09.304Z,100578.13
2022-08-03T07:02:38.738Z,100578.94
2022-08-03T07:05:06.054Z,100578.53
2022-08-03T07:07:32.447Z,100573.84
2022-08-03T07:09:58.796Z,100573.53
2022-08-03T07:12:28.785Z,100572.69
2022-08-03T07:15:00.249Z,100573.84
2022-08-03T07:17:30.160Z,100573.59
2022-08-03T07:19:57.055Z,100578.41
2022-08-03T07:22:23.591Z,100582.47
2022-08-03T07:24:49.925Z,100584.06
2022-08-03T07:27:16.810Z,100588.81
2022-08-03T07:29:43.171Z,100589.59
2022-08-03T07:32:09.616Z,100582.88
2022-08-03T07:34:36.008Z,100586.84
2022-08-03T07:37:02.388Z,100582.88
2022-08-03T07:39:28.840Z,100583.69
2022-08-03T07:41:55.184Z,100580.09
2022-08-03T07:44:21.660Z,100584.88
2022-08-03T07:46:48.175Z,100585.28
2022-08-03T07:49:14.591Z,100586.44
2022-08-03T07:51:40.974Z,100582.41
2022-08-03T07:54:07.301Z,100586.31
2022-08-03T07:56:33.753Z,100583.53
2022-08-03T07:59:00.215Z,100583.81
2022-08-03T08:01:26.599Z,100586.94
2022-08-03T08:03:53.737Z,100582.19
2022-08-03T08:06:20.723Z,100580.72
2022-08-03T08:08:47.441Z,100580.38
2022-08-03T08:11:13.889Z,100576.69
2022-08-03T08:13:40.213Z,100577.38
2022-08-03T08:16:06.557Z,100584.41
2022-08-03T08:18:33.069Z,100580.25
2022-08-03T08:20:59.398Z,100576.97
2022-08-03T08:23:42.261Z,100585.72
2022-08-03T08:26:10.540Z,100584.78
2022-08-03T08:28:36.893Z,100578.34
2022-08-03T08:31:03.291Z,100580.38
2022-08-03T08:33:42.474Z,100586.31
2022-08-03T08:36:16.110Z,100574.72
2022-08-03T08:38:43.589Z,100579.94
2022-08-03T08:41:11.207Z,100580.75
2022-08-03T08:43:37.747Z,100577.44
2022-08-03T08:46:05.939Z,100579.56
2022-08-03T08:48:32.342Z,100580.66
2022-08-03T08:51:00.692Z,100572.81
2022-08-03T08:53:31.426Z,100571.94
2022-08-03T08:56:00.857Z,100567.53
2022-08-03T08:58:37.213Z,100576.56
2022-08-03T09:01:05.046Z,100572.53
2022-08-03T09:03:33.979Z,100572.06
2022-08-03T09:06:01.607Z,100571.78
2022-08-03T09:08:32.827Z,100561.75
2022-08-03T09:10:59.848Z,100565.13
2022-08-03T09:13:26.372Z,100568.63
2022-08-03T09:16:11.231Z,100559.88
2022-08-03T09:18:38.074Z,100550.44
2022-08-03T09:21:33.199Z,100553.81
2022-08-03T09:24:03.661Z,100550.41
2022-08-03T09:26:32.217Z,100539.34
2022-08-03T09:29:05.615Z,100544.88
2022-08-03T09:31:43.573Z,100548.84
2022-08-03T09:34:16.734Z,100546.47
2022-08-03T09:36:44.425Z,100544.03
2022-08-03T09:39:13.070Z,100551.03
2022-08-03T09:41:41.695Z,100548.56
2022-08-03T09:44:08.355Z,100544.56
2022-08-03T09:46:51.848Z,100540.69
2022-08-03T09:49:18.728Z,100537.88
2022-08-03T09:52:32.046Z,100549.56
2022-08-03T09:54:32.607Z,100544.63
2022-08-03T09:56:59.188Z,100539.84
2022-08-03T09:59:28.118Z,100554.06
2022-08-03T10:01:55.981Z,100538.53
2022-08-03T10:04:23.148Z,100543.56
2022-08-03T10:07:09.468Z,100544.06
2022-08-03T10:09:37.174Z,100543.88
2022-08-03T10:12:13.828Z,100549.28
2022-08-03T10:14:41.689Z,100550.69
2022-08-03T10:17:09.558Z,100545.91
2022-08-03T10:19:35.973Z,100546.66
2022-08-03T10:22:13.750Z,100539.06
2022-08-03T10:24:47.586Z,100541.25
2022-08-03T10:27:15.629Z,100534.00
2022-08-03T10:29:45.911Z,100530.03
2022-08-03T10:32:31.328Z,100538.19
2022-08-03T10:35:19.148Z,100535.19
2022-08-03T10:38:03.271Z,100535.25
2022-08-03T10:40:49.589Z,100535.75
2022-08-03T10:43:25.937Z,100526.53
2022-08-03T10:45:52.493Z,100530.44
2022-08-03T10:48:19.828Z,100526.13
2022-08-03T10:50:48.266Z,100520.16
2022-08-03T10:53:14.788Z,100527.97
2022-08-03T10:55:46.334Z,100530.81
2022-08-03T10:58:12.692Z,100520.16
2022-08-03T11:00:56.693Z,100517.44
2022-08-03T11:03:23.139Z,100523.59
2022-08-03T11:05:49.584Z,100522.09
2022-08-03T11:08:21.680Z,100521.13
2022-08-03T11:10:50.608Z,100518.66
2022-08-03T11:13:20.003Z,100515.34
2022-08-03T11:15:49.653Z,100507.13
2022-08-03T11:18:16.057Z,100519.19
2022-08-03T11:20:49.906Z,100513.75
2022-08-03T11:23:18.096Z,100510.34
2022-08-03T11:26:10.255Z,100507.63
2022-08-03T11:28:37.088Z,100504.75
2022-08-03T11:34:16.602Z,100503.94
2022-08-03T11:37:21.859Z,100506.03
2022-08-03T11:39:50.235Z,100503.16
2022-08-03T11:42:22.457Z,100500.59
2022-08-03T11:44:59.161Z,100506.75
2022-08-03T11:47:27.865Z,100501.31
2022-08-03T11:49:56.988Z,100499.56
2022-08-03T11:52:27.018Z,100498.59
2022-08-03T11:54:57.051Z,100508.56
2022-08-03T11:59:01.554Z,100502.88
2022-08-03T12:00:22.841Z,100506.84
2022-08-03T12:03:04.872Z,100501.91
2022-08-03T12:05:51.909Z,100506.03
2022-08-03T12:08:27.814Z,100499.41
2022-08-03T12:10:55.985Z,100497.84
2022-08-03T12:14:33.127Z,100501.44
2022-08-03T12:16:09.694Z,100501.88
2022-08-03T12:18:36.375Z,100490.78
2022-08-03T12:21:08.562Z,100498.34
2022-08-03T12:23:37.805Z,100501.25
2022-08-03T12:26:09.907Z,100493.22
2022-08-03T12:28:38.335Z,100493.22
2022-08-03T12:31:07.694Z,100484.94
2022-08-03T12:34:01.679Z,100486.31
2022-08-03T12:36:29.331Z,100488.41
2022-08-03T12:39:05.398Z,100480.31
2022-08-03T12:41:38.167Z,100490.47
2022-08-03T12:44:06.741Z,100488.25
2022-08-03T12:46:33.002Z,100483.94
2022-08-03T12:49:07.984Z,100490.16
2022-08-03T12:51:56.050Z,100493.69
2022-08-03T12:54:25.093Z,100478.34
2022-08-03T12:57:06.006Z,100481.47
2022-08-03T12:59:40.427Z,100477.66
2022-08-03T13:02:14.019Z,100482.94
2022-08-03T13:04:41.711Z,100474.09
2022-08-03T13:07:12.872Z,100470.94
2022-08-03T13:09:47.582Z,100466.00
2022-08-03T13:12:16.302Z,100468.00
2022-08-03T13:14:44.212Z,100470.00
2022-08-03T13:17:11.359Z,100471.69
2022-08-03T13:19:39.622Z,100467.03
2022-08-03T13:22:13.837Z,100460.75
2022-08-03T13:24:40.394Z,100459.56
2022-08-03T13:28:01.464Z,100464.66
2022-08-03T13:29:53.868Z,100461.75
2022-08-03T13:32:21.254Z,100464.44
2022-08-03T13:34:48.074Z,100455.72
2022-08-03T13:37:15.062Z,100464.16
2022-08-03T13:39:58.149Z,100456.63
2022-08-03T13:42:26.731Z,100456.84
2022-08-03T13:44:53.071Z,100454.38
2022-08-03T13:47:20.203Z,100451.78
2022-08-03T13:49:59.918Z,100447.41
2022-08-03T13:52:32.118Z,100446.81
2022-08-03T13:54:58.582Z,100447.81
2022-08-03T13:58:05.033Z,100444.66
2022-08-03T14:00:11.803Z,100436.44
2022-08-03T14:02:38.407Z,100434.88
2022-08-03T14:05:05.214Z,100432.75
2022-08-03T14:07:31.598Z,100426.91
2022-08-03T14:09:57.946Z,100426.78
2022-08-03T14:12:24.324Z,100423.09
2022-08-03T14:14:50.657Z,100422.97
2022-08-03T14:17:17.103Z,100419.81
2022-08-03T14:19:53.096Z,100419.75
2022-08-03T14:22:20.743Z,100414.69
2022-08-03T14:24:47.119Z,100426.69
2022-08-03T14:27:13.456Z,100412.00
2022-08-03T14:29:39.815Z,100422.56
2022-08-03T14:32:10.874Z,100424.09
2022-08-03T14:34:39.405Z,100421.53
2022-08-03T14:37:05.783Z,100414.88
2022-08-03T14:42:18.537Z,100418.03
2022-08-03T14:44:44.879Z,100417.81
2022-08-03T14:47:11.215Z,100414.66
2022-08-03T14:50:37.431Z,100409.59
2022-08-03T14:52:24.019Z,100406.66
2022-08-03T14:54:50.356Z,100415.56
2022-08-03T14:57:16.788Z,100409.94
2022-08-03T14:59:56.127Z,100414.44
2022-08-03T15:02:24.618Z,100408.34
2022-08-03T15:04:51.450Z,100402.47
2022-08-03T15:07:18.192Z,100399.66
2022-08-03T15:09:44.819Z,100392.25
2022-08-03T15:12:11.158Z,100395.88
2022-08-03T15:14:38.650Z,100389.56
2022-08-03T15:17:05.391Z,100392.44
2022-08-03T15:20:01.134Z,100382.31
2022-08-03T15:22:20.479Z,100389.69
2022-08-03T15:24:47.257Z,100387.66
2022-08-03T15:27:13.591Z,100382.25
2022-08-03T15:30:08.849Z,100381.66
2022-08-03T15:32:26.230Z,100387.63
2022-08-03T15:34:52.701Z,100384.38
2022-08-03T15:37:19.924Z,100378.72
2022-08-03T15:39:59.443Z,100380.75
2022-08-03T15:42:28.545Z,100380.97
2022-08-03T15:44:54.955Z,100376.72
2022-08-03T15:47:21.646Z,100376.03
2022-08-03T15:49:48.211Z,100376.97
2022-08-03T15:52:14.538Z,100373.19
2022-08-03T15:54:40.909Z,100384.19
2022-08-03T15:57:07.317Z,100372.19
2022-08-03T15:59:33.884Z,100373.19
2022-08-03T16:02:00.340Z,100372.66
2022-08-03T16:04:26.780Z,100375.75
2022-08-03T16:06:53.298Z,100368.22
2022-08-03T16:09:22.995Z,100379.63
2022-08-03T16:12:11.862Z,100381.72
2022-08-03T16:14:51.818Z,100386.19
2022-08-03T16:17:20.559Z,100382.72
2022-08-03T16:19:47.160Z,100386.84
2022-08-03T16:22:14.366Z,100382.06
2022-08-03T16:24:41.117Z,100377.50
2022-08-03T16:27:12.865Z,100379.69
2022-08-03T16:29:44.181Z,100378.81
2022-08-03T16:32:11.066Z,100381.59
2022-08-03T16:34:38.399Z,100382.22
2022-08-03T16:37:22.461Z,100379.16
2022-08-03T16:39:52.620Z,100380.03
2022-08-03T16:42:19.192Z,100373.94
2022-08-03T16:44:45.527Z,100374.28
2022-08-03T16:47:21.695Z,100372.22
2022-08-03T16:49:54.012Z,100375.31
2022-08-03T16:52:23.581Z,100373.94
2022-08-03T16:54:53.210Z,100372.78
2022-08-03T16:57:58.748Z,100368.50
2022-08-03T17:00:09.591Z,100371.75
2022-08-03T17:02:36.351Z,100378.16
2022-08-03T17:05:03.308Z,100367.78
2022-08-03T17:07:30.510Z,100371.53
2022-08-03T17:09:57.543Z,100370.31
2022-08-03T17:12:26.895Z,100373.88
2022-08-03T17:14:54.257Z,100375.09
2022-08-03T17:17:29.560Z,100371.25
2022-08-03T17:19:57.974Z,100372.25
2022-08-03T17:22:32.719Z,100371.88
2022-08-03T17:25:08.507Z,100376.69
2022-08-03T17:28:49.246Z,100366.97
2022-08-03T17:30:25.328Z,100370.31
2022-08-03T17:32:57.617Z,100373.97
2022-08-03T17:35:34.349Z,100370.94
2022-08-03T17:38:06.617Z,100375.03
2022-08-03T17:40:35.516Z,100371.19
2022-08-03T17:44:12.901Z,100376.78
2022-08-03T17:45:55.132Z,100373.47
2022-08-03T17:48:24.860Z,100379.00
2022-08-03T17:50:59.633Z,100378.34
2022-08-03T17:53:31.337Z,100380.41
2022-08-03T17:56:40.717Z,100383.19
2022-08-03T17:59:13.570Z,100381.44
2022-08-03T18:02:30.811Z,100382.09
2022-08-03T18:05:16.603Z,100381.03
2022-08-03T18:07:48.899Z,100379.59
2022-08-03T18:10:26.216Z,100383.69
2022-08-03T18:12:57.766Z,100380.59
2022-08-03T18:15:34.691Z,100382.50
2022-08-03T18:18:10.333Z,100392.25
2022-08-03T18:20:41.766Z,100388.75
2022-08-03T18:23:24.971Z,100387.88
2022-08-03T18:26:05.183Z,100388.13
2022-08-03T18:28:33.600Z,100390.28
2022-08-03T18:31:04.256Z,100378.94
2022-08-03T18:34:16.178Z,100383.22
2022-08-03T18:36:30.081Z,100385.50
2022-08-03T18:38:59.304Z,100391.78
2022-08-03T18:41:32.921Z,100393.53
2022-08-03T18:44:08.323Z,100391.53
2022-08-03T18:46:47.281Z,100393.25
2022-08-03T18:49:20.612Z,100389.25
2022-08-03T18:51:56.132Z,100390.09
2022-08-03T18:55:01.147Z,100393.03
2022-08-03T18:57:44.294Z,100391.91
2022-08-03T19:00:14.351Z,100391.94
2022-08-03T19:02:48.663Z,100398.38
2022-08-03T19:05:23.063Z,100397.31
2022-08-03T19:07:59.781Z,100393.06
2022-08-03T19:10:32.159Z,100405.88
2022-08-03T19:13:16.947Z,100410.28
2022-08-03T19:15:51.344Z,100404.75
2022-08-03T19:18:20.827Z,100412.38
2022-08-03T19:20:51.446Z,100413.19
2022-08-03T19:23:25.572Z,100417.22
2022-08-03T19:25:53.042Z,100413.66
2022-08-03T19:28:30.067Z,100418.44
2022-08-03T19:30:59.909Z,100417.66
2022-08-03T19:33:31.075Z,100419.28
2022-08-03T19:36:17.826Z,100415.31
2022-08-03T19:38:54.462Z,100420.88
2022-08-03T19:41:24.593Z,100418.06
2022-08-03T19:43:59.433Z,100423.66
2022-08-03T19:46:30.678Z,100415.69
2022-08-03T19:49:10.340Z,100427.19
2022-08-03T19:51:58.358Z,100419.25
2022-08-03T19:54:36.975Z,100423.59
2022-08-03T19:57:17.307Z,100420.03
2022-08-03T19:59:50.053Z,100429.16
2022-08-03T20:02:27.310Z,100425.97
2022-08-03T20:04:57.933Z,100423.94
2022-08-03T20:07:27.859Z,100424.31
2022-08-03T20:09:56.697Z,100431.84
2022-08-03T20:12:28.179Z,100425.88
2022-08-03T20:14:57.136Z,100421.47
2022-08-03T20:17:56.820Z,100424.19
2022-08-03T20:20:10.067Z,100422.63
2022-08-03T20:22:39.793Z,100432.53
2022-08-03T20:25:07.841Z,100434.50
2022-08-03T20:28:06.652Z,100428.53
2022-08-03T20:30:33.082Z,100427.69
2022-08-03T20:32:59.463Z,100432.75
2022-08-03T20:35:25.808Z,100434.25
2022-08-03T20:37:54.516Z,100436.16
2022-08-03T20:40:22.626Z,100440.53
2022-08-03T20:42:53.870Z,100437.28
2022-08-03T20:46:01.077Z,100447.19
2022-08-03T20:48:09.663Z,100446.31
2022-08-03T20:50:40.323Z,100445.91
2022-08-03T20:53:10.488Z,100435.22
2022-08-03T20:55:47.549Z,100437.91
2022-08-03T20:58:25.526Z,100434.25
2022-08-03T21:00:53.658Z,100435.44
2022-08-03T21:03:20.097Z,100434.16
2022-08-03T21:05:53.547Z,100435.31
2022-08-03T21:08:22.529Z,100437.63
2022-08-03T21:10:50.017Z,100438.63
2022-08-03T21:13:24.535Z,100444.41
2022-08-03T21:16:03.319Z,100443.69
2022-08-03T21:18:45.282Z,100450.84
2022-08-03T21:21:15.110Z,100448.13
2022-08-03T21:23:49.129Z,100442.97
2022-08-03T21:26:18.345Z,100443.31
2022-08-03T21:28:49.676Z,100439.31
2022-08-03T21:31:23.725Z,100434.59
2022-08-03T21:33:53.878Z,100440.34
2022-08-03T21:36:20.291Z,100440.38
2022-08-03T21:38:55.774Z,100439.47
2022-08-03T21:41:23.543Z,100434.69
2022-08-03T21:43:49.975Z,100437.03
2022-08-03T21:46:19.037Z,100442.56
2022-08-03T21:48:47.896Z,100439.28
2022-08-03T21:51:17.226Z,100435.16
2022-08-03T21:54:02.627Z,100437.06
2022-08-03T21:56:40.145Z,100443.22
2022-08-03T21:59:08.576Z,100452.69
2022-08-03T22:01:39.531Z,100442.34
2022-08-03T22:04:07.212Z,100446.38
2022-08-03T22:06:36.047Z,100439.16
2022-08-03T22:09:05.504Z,100437.84
2022-08-03T22:11:36.219Z,100440.13
2022-08-03T22:14:02.961Z,100446.69
2022-08-03T22:16:30.174Z,100443.09
2022-08-03T22:18:56.518Z,100442.63
2022-08-03T22:21:36.394Z,100441.06
2022-08-03T22:24:05.579Z,100445.97
2022-08-03T22:26:35.397Z,100452.72
2022-08-03T22:29:07.293Z,100437.69
2022-08-03T22:31:58.381Z,100454.22
2022-08-03T22:34:26.874Z,100446.94
2022-08-03T22:36:57.302Z,100446.03
2022-08-03T22:39:28.606Z,100449.13
2022-08-03T22:41:57.426Z,100455.38
2022-08-03T22:44:24.209Z,100456.88
2022-08-03T22:46:50.607Z,100457.13
2022-08-03T22:49:18.227Z,100463.81
2022-08-03T22:51:44.776Z,100461.19
2022-08-03T22:54:11.854Z,100450.50
2022-08-03T22:56:38.765Z,100457.91
2022-08-03T22:59:40.257Z,100452.41
2022-08-03T23:02:00.304Z,100458.09
2022-08-03T23:04:32.561Z,100456.03
2022-08-03T23:07:02.958Z,100457.50
2022-08-03T23:09:30.986Z,100452.63
2022-08-03T23:12:00.884Z,100452.56
2022-08-03T23:14:30.232Z,100455.22
2022-08-03T23:17:02.769Z,100448.34
2022-08-03T23:19:30.398Z,100457.03
2022-08-03T23:22:04.063Z,100455.81
2022-08-03T23:24:36.053Z,100454.53
2022-08-03T23:27:04.299Z,100449.25
2022-08-03T23:29:33.666Z,100452.19
2022-08-03T23:32:01.611Z,100451.84
2022-08-03T23:34:30.703Z,100453.38
2022-08-03T23:36:58.246Z,100445.31
2022-08-03T23:39:28.483Z,100450.81
2022-08-03T23:42:01.603Z,100442.78
2022-08-03T23:44:30.137Z,100439.78
2022-08-03T23:46:57.248Z,100436.31
2022-08-03T23:49:23.668Z,100437.53
2022-08-03T23:52:09.306Z,100445.56
2022-08-03T23:54:46.372Z,100447.91
2022-08-03T23:57:47.054Z,100438.16
